createdAt,value
2023-01-23T00:02:45.355Z,80.50
2023-01-23T00:06:08.560Z,80.54
2023-01-23T00:09:48.285Z,80.42
2023-01-23T00:18:39.759Z,80.45
2023-01-23T00:22:32.862Z,80.39
2023-01-23T00:26:18.618Z,80.45
2023-01-23T00:30:30.915Z,80.29
2023-01-23T00:34:25.533Z,80.39
2023-01-23T00:38:08.099Z,80.34
2023-01-23T00:42:00.675Z,80.25
2023-01-23T00:45:58.159Z,80.26
2023-01-23T00:49:33.119Z,80.23
2023-01-23T00:53:47.994Z,80.31
2023-01-23T00:57:35.643Z,80.28
2023-01-23T01:01:19.163Z,80.22
2023-01-23T01:05:21.857Z,80.47
2023-01-23T01:09:18.202Z,80.35
2023-01-23T01:12:39.309Z,80.27
2023-01-23T01:27:22.221Z,80.20
2023-01-23T01:31:25.070Z,80.29
2023-01-23T01:35:15.396Z,80.05
2023-01-23T01:39:18.014Z,80.34
2023-01-23T01:43:14.374Z,80.42
2023-01-23T01:47:19.986Z,80.41
2023-01-23T01:51:22.883Z,80.39
2023-01-23T01:55:33.283Z,80.35
2023-01-23T01:59:35.427Z,80.44
2023-01-23T02:08:38.031Z,80.26
2023-01-23T02:12:41.693Z,80.24
2023-01-23T02:16:18.694Z,80.40
2023-01-23T02:20:44.900Z,80.01
2023-01-23T02:25:03.479Z,80.12
2023-01-23T02:34:12.115Z,80.29
2023-01-23T02:38:16.199Z,80.18
2023-01-23T02:42:22.929Z,80.29
2023-01-23T02:46:08.833Z,80.29
2023-01-23T02:49:43.029Z,80.24
2023-01-23T02:53:45.340Z,80.23
2023-01-23T03:02:11.377Z,80.09
2023-01-23T03:06:14.085Z,80.12
2023-01-23T03:14:55.822Z,80.19
2023-01-23T03:18:54.579Z,80.11
2023-01-23T03:22:48.812Z,80.30
2023-01-23T03:26:42.338Z,80.06
2023-01-23T03:30:46.165Z,80.26
2023-01-23T03:45:04.095Z,80.24
2023-01-23T03:48:13.073Z,80.23
2023-01-23T03:52:16.707Z,80.04
2023-01-23T04:00:47.737Z,80.01
2023-01-23T04:04:42.736Z,80.20
2023-01-23T04:08:19.395Z,80.13
2023-01-23T04:22:05.145Z,80.15
2023-01-23T04:26:07.848Z,80.05
2023-01-23T04:30:00.275Z,79.99
2023-01-23T04:33:53.777Z,80.01
2023-01-23T04:37:43.987Z,80.06
2023-01-23T04:41:41.235Z,79.90
2023-01-23T04:54:53.512Z,79.93
2023-01-23T04:58:54.498Z,79.82
2023-01-23T05:02:58.072Z,79.81
2023-01-23T05:06:52.712Z,79.90
2023-01-23T05:10:52.520Z,79.97
2023-01-23T05:28:34.618Z,80.01
2023-01-23T05:32:00.637Z,79.75
2023-01-23T05:36:04.898Z,79.80
2023-01-23T05:39:46.841Z,79.93
2023-01-23T05:43:51.989Z,79.85
2023-01-23T05:47:36.890Z,79.77
2023-01-23T05:51:32.679Z,79.80
2023-01-23T06:00:24.601Z,79.77
2023-01-23T06:04:13.784Z,79.75
2023-01-23T06:08:16.441Z,79.72
2023-01-23T06:11:57.351Z,79.86
2023-01-23T06:15:53.564Z,79.88
2023-01-23T06:19:41.397Z,79.77
2023-01-23T06:23:32.819Z,79.89
2023-01-23T06:27:08.249Z,79.92
2023-01-23T06:30:52.013Z,79.84
2023-01-23T06:34:17.589Z,79.70
2023-01-23T06:38:13.881Z,79.82
2023-01-23T06:42:06.171Z,79.89
2023-01-23T06:45:42.905Z,79.95
2023-01-23T06:49:45.299Z,79.78
2023-01-23T06:53:52.741Z,79.93
2023-01-23T06:57:16.423Z,79.88
2023-01-23T07:00:48.432Z,79.97
2023-01-23T07:04:52.161Z,79.73
2023-01-23T07:08:54.724Z,79.86
2023-01-23T07:12:56.890Z,79.92
2023-01-23T07:16:28.454Z,79.62
2023-01-23T07:20:04.429Z,79.78
2023-01-23T07:23:47.988Z,79.83
2023-01-23T07:27:33.813Z,79.51
2023-01-23T07:31:28.003Z,79.72
2023-01-23T07:34:53.207Z,79.68
2023-01-23T07:38:50.844Z,79.72
2023-01-23T07:42:40.017Z,79.84
2023-01-23T07:46:20.652Z,79.67
2023-01-23T07:50:13.497Z,79.67
2023-01-23T07:54:08.283Z,79.72
2023-01-23T07:58:22.128Z,79.69
2023-01-23T08:02:18.437Z,79.75
2023-01-23T08:06:10.837Z,79.57
2023-01-23T08:10:17.732Z,79.68
2023-01-23T08:14:14.269Z,79.57
2023-01-23T08:17:22.180Z,79.46
2023-01-23T08:21:18.862Z,79.36
2023-01-23T08:25:25.684Z,79.39
2023-01-23T08:29:11.865Z,79.29
2023-01-23T08:33:04.822Z,79.47
2023-01-23T08:36:55.225Z,79.43
2023-01-23T08:40:51.847Z,79.61
2023-01-23T08:44:48.411Z,79.56
2023-01-23T08:48:45.252Z,79.55
2023-01-23T08:52:49.628Z,79.46
2023-01-23T08:56:56.474Z,79.61
2023-01-23T09:01:00.270Z,79.47
2023-01-23T09:05:03.379Z,79.53
2023-01-23T09:08:52.324Z,79.44
2023-01-23T09:12:25.869Z,79.42
2023-01-23T09:16:22.498Z,79.33
2023-01-23T09:20:20.129Z,79.01
2023-01-23T09:23:41.532Z,79.00
2023-01-23T09:27:45.474Z,79.15
2023-01-23T09:31:15.564Z,79.34
2023-01-23T09:35:05.216Z,79.10
2023-01-23T09:39:07.933Z,79.17
2023-01-23T09:42:42.348Z,79.08
2023-01-23T09:46:36.429Z,79.08
2023-01-23T09:50:30.266Z,79.13
2023-01-23T09:54:26.917Z,79.09
2023-01-23T09:58:29.167Z,79.16
2023-01-23T10:02:26.576Z,79.09
2023-01-23T10:06:23.528Z,78.98
2023-01-23T10:10:19.422Z,79.16
2023-01-23T10:18:54.546Z,78.99
2023-01-23T10:22:40.763Z,79.18
2023-01-23T10:26:22.943Z,79.15
2023-01-23T10:30:23.594Z,78.90
2023-01-23T10:34:44.645Z,78.86
2023-01-23T10:38:56.585Z,78.66
2023-01-23T10:42:39.002Z,78.76
2023-01-23T10:46:21.043Z,78.73
2023-01-23T10:50:13.340Z,78.78
2023-01-23T10:54:07.211Z,78.77
2023-01-23T10:58:07.490Z,78.82
2023-01-23T11:02:14.263Z,78.75
2023-01-23T11:06:19.620Z,78.69
2023-01-23T11:10:13.734Z,78.72
2023-01-23T11:14:19.743Z,78.66
2023-01-23T11:18:23.356Z,78.77
2023-01-23T11:22:35.841Z,78.76
2023-01-23T11:26:33.446Z,78.61
2023-01-23T11:30:47.873Z,78.67
2023-01-23T11:34:43.587Z,78.62
2023-01-23T11:38:52.494Z,78.58
2023-01-23T11:42:58.362Z,78.49
2023-01-23T11:47:07.881Z,78.41
2023-01-23T11:51:06.640Z,78.44
2023-01-23T11:55:25.344Z,78.49
2023-01-23T11:59:35.689Z,78.40
2023-01-23T12:03:41.947Z,78.36
2023-01-23T12:07:47.118Z,78.41
2023-01-23T12:11:54.741Z,78.23
2023-01-23T12:15:59.766Z,78.33
2023-01-23T12:24:47.477Z,78.24
2023-01-23T12:29:05.312Z,78.17
2023-01-23T12:33:18.440Z,78.24
2023-01-23T12:37:46.423Z,78.18
2023-01-23T12:41:48.498Z,78.18
2023-01-23T12:45:31.871Z,78.08
2023-01-23T12:49:44.381Z,78.12
2023-01-23T12:53:47.350Z,78.16
2023-01-23T12:58:09.055Z,78.08
2023-01-23T13:02:05.842Z,78.13
2023-01-23T13:06:24.784Z,78.06
2023-01-23T13:10:29.196Z,78.12
2023-01-23T13:19:19.488Z,78.09
2023-01-23T13:22:51.956Z,78.10
2023-01-23T13:26:56.223Z,78.12
2023-01-23T13:31:02.673Z,78.16
2023-01-23T13:35:13.049Z,78.16
2023-01-23T13:39:13.785Z,78.17
2023-01-23T13:43:03.070Z,78.05
2023-01-23T14:24:56.689Z,78.03
2023-01-23T14:28:52.357Z,78.10
2023-01-23T14:32:41.593Z,78.05
2023-01-23T14:36:26.232Z,78.16
2023-01-23T14:40:27.829Z,78.07
2023-01-23T14:44:32.395Z,78.26
2023-01-23T14:48:22.907Z,78.42
2023-01-23T14:52:19.292Z,78.30
2023-01-23T14:56:15.933Z,78.30
2023-01-23T15:00:24.535Z,78.43
2023-01-23T15:04:27.543Z,78.41
2023-01-23T15:08:31.365Z,78.37
2023-01-23T15:12:35.658Z,78.42
2023-01-23T15:16:39.301Z,78.38
2023-01-23T15:20:41.664Z,78.34
2023-01-23T15:24:30.179Z,78.42
2023-01-23T15:28:21.002Z,78.44
2023-01-23T15:32:21.368Z,78.49
2023-01-23T15:36:06.781Z,78.37
2023-01-23T15:40:04.291Z,78.46
2023-01-23T15:43:55.365Z,78.40
2023-01-23T15:47:31.421Z,78.29
2023-01-23T15:51:06.521Z,78.28
2023-01-23T15:55:03.845Z,78.32
2023-01-23T15:59:09.588Z,78.27
2023-01-23T16:03:02.382Z,78.27
2023-01-23T16:07:02.277Z,78.24
2023-01-23T16:11:08.716Z,78.31
2023-01-23T16:14:52.357Z,78.31
2023-01-23T16:18:57.125Z,78.35
2023-01-23T16:22:35.764Z,78.34
2023-01-23T16:26:15.197Z,78.33
2023-01-23T16:30:27.213Z,78.31
2023-01-23T16:34:30.846Z,78.21
2023-01-23T16:38:34.992Z,78.36
2023-01-23T16:42:26.741Z,78.14
2023-01-23T16:46:24.490Z,78.21
2023-01-23T16:50:28.142Z,78.11
2023-01-23T16:54:23.440Z,78.20
2023-01-23T16:58:25.919Z,78.13
2023-01-23T17:02:22.282Z,78.16
2023-01-23T17:06:22.025Z,78.10
2023-01-23T17:10:37.873Z,78.24
2023-01-23T17:14:18.835Z,78.14
2023-01-23T17:18:08.447Z,78.03
2023-01-23T17:22:12.056Z,78.13
2023-01-23T17:26:00.877Z,77.88
2023-01-23T17:30:09.257Z,78.05
2023-01-23T17:34:16.729Z,78.21
2023-01-23T17:37:54.034Z,78.10
2023-01-23T17:42:00.637Z,78.21
2023-01-23T17:46:05.228Z,78.17
2023-01-23T17:50:10.474Z,78.29
2023-01-23T17:54:06.845Z,78.12
2023-01-23T17:58:03.139Z,78.03
2023-01-23T18:02:11.756Z,78.04
2023-01-23T18:06:15.490Z,78.00
2023-01-23T18:10:04.414Z,78.08
2023-01-23T18:14:20.501Z,78.12
2023-01-23T18:18:21.771Z,78.10
2023-01-23T18:22:23.591Z,78.10
2023-01-23T18:25:59.768Z,78.12
2023-01-23T18:29:54.421Z,78.08
2023-01-23T18:34:05.887Z,78.17
2023-01-23T18:38:08.169Z,78.21
2023-01-23T18:42:10.037Z,78.18
2023-01-23T18:46:14.266Z,78.25
2023-01-23T18:50:19.733Z,78.17
2023-01-23T18:54:25.665Z,78.27
2023-01-23T18:58:30.624Z,78.29
2023-01-23T19:02:44.522Z,78.10
2023-01-23T19:07:14.433Z,78.19
2023-01-23T19:11:03.227Z,78.18
2023-01-23T19:15:30.042Z,78.16
2023-01-23T19:19:42.525Z,78.28
2023-01-23T19:23:53.887Z,78.36
2023-01-23T19:32:38.035Z,78.20
2023-01-23T19:36:42.363Z,78.24
2023-01-23T19:40:39.064Z,78.20
2023-01-23T19:44:44.987Z,78.21
2023-01-23T19:49:01.200Z,78.30
2023-01-23T19:57:46.093Z,78.42
2023-01-23T20:01:55.653Z,78.08
2023-01-23T20:05:37.505Z,78.08
2023-01-23T20:09:21.263Z,78.26
2023-01-23T20:13:26.001Z,78.26
2023-01-23T20:17:12.169Z,78.28
2023-01-23T20:21:08.914Z,78.08
2023-01-23T20:24:38.380Z,78.21
2023-01-23T20:28:31.857Z,78.29
2023-01-23T20:32:35.506Z,78.25
2023-01-23T20:36:39.041Z,78.40
2023-01-23T20:40:35.537Z,78.27
2023-01-23T20:43:58.449Z,78.19
2023-01-23T20:47:22.560Z,78.28
2023-01-23T20:50:31.045Z,78.31
2023-01-23T20:54:23.428Z,78.26
2023-01-23T20:58:06.023Z,78.33
2023-01-23T21:02:01.568Z,78.19
2023-01-23T21:05:57.949Z,78.14
2023-01-23T21:09:44.741Z,78.32
2023-01-23T21:13:29.816Z,78.16
2023-01-23T21:22:20.278Z,78.13
2023-01-23T21:25:48.570Z,78.17
2023-01-23T21:29:52.671Z,78.14
2023-01-23T21:33:48.416Z,78.34
2023-01-23T21:46:52.301Z,78.41
2023-01-23T21:50:37.390Z,78.33
2023-01-23T21:54:29.222Z,78.22
2023-01-23T21:58:31.964Z,78.34
2023-01-23T22:02:28.546Z,78.38
2023-01-23T22:06:31.486Z,78.23
2023-01-23T22:10:17.350Z,78.26
2023-01-23T22:13:46.081Z,78.20
2023-01-23T22:17:49.996Z,78.37
2023-01-23T22:21:20.711Z,78.15
2023-01-23T22:30:05.874Z,78.28
2023-01-23T22:33:54.751Z,78.24
2023-01-23T22:38:15.020Z,78.19
2023-01-23T22:46:32.448Z,78.16
2023-01-23T22:50:20.236Z,78.09
2023-01-23T22:54:15.584Z,78.06
2023-01-23T22:58:19.454Z,78.20
2023-01-23T23:02:22.500Z,78.35
2023-01-23T23:06:21.578Z,78.33
2023-01-23T23:10:25.285Z,78.40
2023-01-23T23:14:47.199Z,78.24
2023-01-23T23:18:43.876Z,78.26
2023-01-23T23:22:30.373Z,78.43
2023-01-23T23:26:33.980Z,78.47
2023-01-23T23:30:27.711Z,78.31
2023-01-23T23:43:32.809Z,78.44
2023-01-23T23:47:35.200Z,78.32
2023-01-23T23:51:27.513Z,78.28
2023-01-23T23:55:31.211Z,78.39
2023-01-23T23:59:37.837Z,78.60
